Terminal Aerodrome Forecast
Issued by NWS Jackson, MS

Home | Current Version | Previous Version | Text Only | Print | Product List | Glossary On
Versions: 1 2 3 4 5 6 7 8 9 10 11 12 13 14 15
000
FTUS44 KJAN 252300
TAFHBG
TAF
KHBG 252338Z 2600/2624 25007KT P6SM SCT070
     FM260130 29008KT P6SM SCT070
     FM261000 31008KT P6SM BKN028
     FM261600 31010KT P6SM SCT030=

USA.gov is the U.S. government's official web portal to all federal, state and local government web resources and services.